Time;durP1;ratioP1;P1;durP2;ratioP2;P2;SDS_P1;SDS_P2;PMS_P1;PMS_P2;Temp;Humidity;BMP_temperature;BMP_pressure;BME280_temperature;BME280_humidity;BME280_pressure;Samples;Min_cycle;Max_cycle;Signal;HPM_P1;HPM_P2
2021/06/12 00:02:09;;;;;;;3.45;1.27;;;25.70;57.50;;;;;;5049757;28;20111;-41
2021/06/12 00:04:34;;;;;;;2.92;1.17;;;25.70;57.50;;;;;;5050894;28;20372;-41
2021/06/12 00:07:00;;;;;;;3.60;1.00;;;25.70;57.50;;;;;;5048633;28;20048;-41
2021/06/12 00:09:28;;;;;;;3.08;1.10;;;25.60;57.60;;;;;;5048991;28;20060;-42
2021/06/12 00:11:54;;;;;;;2.60;1.33;;;25.60;57.50;;;;;;5048223;28;20536;-42
2021/06/12 00:14:20;;;;;;;2.60;1.27;;;25.60;58.10;;;;;;5051880;28;20025;-42
2021/06/12 00:16:45;;;;;;;1.27;1.17;;;25.60;57.30;;;;;;5053744;28;20074;-42
2021/06/12 00:19:11;;;;;;;2.78;1.10;;;25.60;57.30;;;;;;5049299;28;20033;-41
2021/06/12 00:21:37;;;;;;;2.55;1.00;;;25.60;57.30;;;;;;5052461;28;20064;-42
2021/06/12 00:24:06;;;;;;;1.20;1.10;;;25.50;57.30;;;;;;5049141;28;20487;-42
2021/06/12 00:26:32;;;;;;;1.20;1.10;;;25.50;57.30;;;;;;5048988;28;20067;-42
2021/06/12 00:28:58;;;;;;;1.20;1.10;;;25.50;57.30;;;;;;5051508;28;20049;-42
2021/06/12 00:31:24;;;;;;;1.27;1.13;;;25.50;57.40;;;;;;5049291;28;20079;-41
2021/06/12 00:33:49;;;;;;;1.60;1.30;;;25.50;57.30;;;;;;5054985;28;20406;-41
2021/06/12 00:36:15;;;;;;;1.30;1.05;;;25.50;57.40;;;;;;5053011;28;20595;-42
2021/06/12 00:38:41;;;;;;;3.13;1.20;;;25.50;57.50;;;;;;5049545;28;20040;-42
2021/06/12 00:41:07;;;;;;;1.13;1.02;;;25.50;57.40;;;;;;5051865;28;20036;-41
2021/06/12 00:43:34;;;;;;;1.52;1.42;;;25.40;57.20;;;;;;5038226;28;20104;-42
2021/06/12 00:46:00;;;;;;;0.98;0.98;;;25.50;57.30;;;;;;5048314;28;20063;-42
2021/06/12 00:48:27;;;;;;;1.45;1.35;;;25.50;57.30;;;;;;5038226;28;20038;-42
2021/06/12 00:50:53;;;;;;;1.20;1.17;;;25.40;57.30;;;;;;5041817;28;20038;-41
2021/06/12 00:53:19;;;;;;;0.98;0.98;;;25.40;57.60;;;;;;5045209;28;20079;-35
2021/06/12 00:55:46;;;;;;;1.33;1.20;;;25.40;58.20;;;;;;5047773;28;20028;-35
2021/06/12 00:58:11;;;;;;;1.40;1.35;;;25.40;57.50;;;;;;5033190;28;20018;-35
2021/06/12 01:00:37;;;;;;;1.33;1.17;;;25.40;57.40;;;;;;5052637;28;20029;-36
2021/06/12 01:03:03;;;;;;;1.50;0.98;;;25.40;57.60;;;;;;5036885;28;20523;-37
2021/06/12 01:05:28;;;;;;;1.10;1.10;;;25.30;57.60;;;;;;5036118;28;20030;-36
2021/06/12 01:07:54;;;;;;;1.00;1.00;;;25.30;57.60;;;;;;5035975;28;20048;-35
2021/06/12 01:10:19;;;;;;;0.80;0.80;;;25.20;57.70;;;;;;5031859;28;20064;-35
2021/06/12 01:13:24;;;;;;;0.90;0.90;;;25.20;57.90;;;;;;5037092;28;20029;-35
2021/06/12 01:16:02;;;;;;;1.13;1.02;;;25.20;57.70;;;;;;5031518;28;20055;-36
2021/06/12 01:18:32;;;;;;;1.33;1.23;;;25.30;57.70;;;;;;5047180;28;20030;-35
2021/06/12 01:21:03;;;;;;;1.10;1.10;;;25.30;57.60;;;;;;5059681;28;20052;-36
2021/06/12 01:23:50;;;;;;;1.20;1.10;;;25.30;57.60;;;;;;5042705;28;20028;-35
2021/06/12 01:26:39;;;;;;;1.20;1.10;;;25.20;57.70;;;;;;5035883;28;20479;-36
2021/06/12 01:29:27;;;;;;;1.00;1.00;;;25.20;57.70;;;;;;5025078;28;20041;-36
2021/06/12 01:31:53;;;;;;;1.00;1.00;;;25.20;57.90;;;;;;5044774;28;20521;-35
2021/06/12 01:34:19;;;;;;;2.45;1.00;;;25.10;57.90;;;;;;5063157;28;20029;-36
2021/06/12 01:36:44;;;;;;;0.90;0.90;;;25.10;58.30;;;;;;5051806;28;20034;-36
2021/06/12 01:39:10;;;;;;;1.10;1.10;;;25.10;58.70;;;;;;5025964;28;20032;-35
2021/06/12 01:41:36;;;;;;;1.02;1.02;;;25.00;58.20;;;;;;5041015;28;20064;-36
2021/06/12 01:44:01;;;;;;;1.50;1.10;;;25.00;58.20;;;;;;5003606;28;20056;-35
2021/06/12 01:46:27;;;;;;;1.23;1.13;;;25.10;58.10;;;;;;5016519;28;27209;-37
2021/06/12 01:48:54;;;;;;;1.30;1.30;;;25.10;58.10;;;;;;5063086;28;20455;-37
2021/06/12 01:51:20;;;;;;;1.10;1.10;;;25.10;58.00;;;;;;5036499;28;20038;-35
2021/06/12 01:53:45;;;;;;;1.27;1.27;;;25.10;57.80;;;;;;5023313;28;20051;-36
2021/06/12 01:56:11;;;;;;;1.10;1.00;;;25.10;57.90;;;;;;5059022;28;20032;-36
2021/06/12 01:58:39;;;;;;;0.93;0.93;;;25.10;57.90;;;;;;5061605;28;20484;-35
2021/06/12 02:01:06;;;;;;;1.30;1.30;;;25.10;57.90;;;;;;5048225;28;20450;-36
2021/06/12 02:03:32;;;;;;;1.00;1.00;;;25.20;57.80;;;;;;5051484;28;20025;-36
2021/06/12 02:05:58;;;;;;;1.08;1.08;;;25.10;57.90;;;;;;5024990;28;20032;-35
2021/06/12 02:08:23;;;;;;;1.17;1.17;;;25.00;58.60;;;;;;5043852;28;20074;-40
2021/06/12 02:10:49;;;;;;;1.55;1.45;;;25.00;58.10;;;;;;5044626;28;20104;-41
2021/06/12 02:13:21;;;;;;;1.02;1.02;;;25.00;58.10;;;;;;5047436;28;20028;-40
2021/06/12 02:15:46;;;;;;;1.10;1.10;;;25.10;58.10;;;;;;5039699;28;20021;-40
2021/06/12 02:18:12;;;;;;;1.30;1.20;;;25.00;58.10;;;;;;5015307;28;20097;-40
2021/06/12 02:20:38;;;;;;;1.48;1.38;;;25.10;57.90;;;;;;5044042;28;20124;-40
2021/06/12 02:23:04;;;;;;;1.00;1.00;;;25.10;58.00;;;;;;5045742;28;20478;-40
2021/06/12 02:25:30;;;;;;;1.00;1.00;;;25.10;57.90;;;;;;5031449;28;20033;-41
2021/06/12 02:27:58;;;;;;;1.10;1.10;;;25.00;58.00;;;;;;5033670;28;20022;-41
2021/06/12 02:30:27;;;;;;;1.20;1.20;;;25.10;58.00;;;;;;5052042;28;20084;-37
2021/06/12 02:32:55;;;;;;;1.40;1.30;;;25.10;57.90;;;;;;5024212;28;20079;-36
2021/06/12 02:35:21;;;;;;;1.08;1.08;;;25.10;58.00;;;;;;5058400;28;20410;-37
2021/06/12 02:37:47;;;;;;;1.10;1.10;;;25.10;57.90;;;;;;5048242;28;20029;-36
2021/06/12 02:40:12;;;;;;;0.90;0.90;;;25.10;57.90;;;;;;5042301;28;22985;-36
2021/06/12 02:42:38;;;;;;;1.02;1.02;;;25.00;58.00;;;;;;5035986;28;20108;-37
2021/06/12 02:45:05;;;;;;;1.15;1.15;;;25.00;58.10;;;;;;5035487;28;20510;-36
2021/06/12 02:47:31;;;;;;;1.00;1.00;;;25.00;58.10;;;;;;5019784;28;20480;-36
2021/06/12 02:49:57;;;;;;;1.23;1.23;;;25.00;58.10;;;;;;5022974;28;20100;-36
2021/06/12 02:52:28;;;;;;;0.90;0.90;;;25.00;58.10;;;;;;5017605;28;20467;-36
2021/06/12 02:54:55;;;;;;;0.80;0.80;;;25.00;58.20;;;;;;5064737;28;20024;-41
2021/06/12 02:57:20;;;;;;;1.00;1.00;;;24.90;58.30;;;;;;5055394;28;20039;-41
2021/06/12 02:59:46;;;;;;;1.10;1.10;;;25.00;58.30;;;;;;5026387;28;20029;-41
2021/06/12 03:02:13;;;;;;;1.10;1.10;;;25.00;58.10;;;;;;5046415;28;20022;-41
2021/06/12 03:04:39;;;;;;;1.08;1.08;;;25.00;58.20;;;;;;5064520;28;20083;-39
2021/06/12 03:07:04;;;;;;;0.85;0.85;;;25.00;58.30;;;;;;5066208;28;20024;-41
2021/06/12 03:09:30;;;;;;;2.53;1.00;;;25.00;58.10;;;;;;5039274;28;20041;-41
2021/06/12 03:11:55;;;;;;;0.90;0.90;;;25.00;58.10;;;;;;5027121;28;20040;-40
2021/06/12 03:14:21;;;;;;;0.80;0.80;;;25.00;58.20;;;;;;5062099;28;20018;-40
2021/06/12 03:16:47;;;;;;;2.25;0.77;;;24.90;58.30;;;;;;5024028;28;20029;-41
2021/06/12 03:19:14;;;;;;;0.90;0.90;;;24.90;58.30;;;;;;5049406;28;31454;-41
2021/06/12 03:21:39;;;;;;;1.00;1.00;;;24.90;58.30;;;;;;5039215;28;20064;-39
2021/06/12 03:24:05;;;;;;;1.00;1.00;;;24.90;58.30;;;;;;5023226;28;20130;-41
2021/06/12 03:26:32;;;;;;;0.85;0.85;;;24.90;58.30;;;;;;5038364;28;20036;-41
2021/06/12 03:28:57;;;;;;;1.00;1.00;;;25.00;58.20;;;;;;5019750;28;20037;-41
2021/06/12 03:31:23;;;;;;;0.80;0.80;;;25.00;57.90;;;;;;5031623;28;20406;-41
2021/06/12 03:33:49;;;;;;;0.98;0.98;;;24.90;58.20;;;;;;5037758;28;20079;-41
2021/06/12 03:36:14;;;;;;;0.90;0.90;;;24.90;58.10;;;;;;5029649;28;20029;-41
2021/06/12 03:38:40;;;;;;;0.80;0.80;;;25.00;58.00;;;;;;5046492;28;20087;-41
2021/06/12 03:41:05;;;;;;;1.17;1.17;;;25.00;57.90;;;;;;5047284;28;20374;-35
2021/06/12 03:43:32;;;;;;;0.80;0.80;;;25.00;57.90;;;;;;5018709;28;20098;-37
2021/06/12 03:45:59;;;;;;;0.90;0.90;;;25.00;57.90;;;;;;5048926;28;20442;-36
2021/06/12 03:48:24;;;;;;;0.70;0.70;;;24.90;58.00;;;;;;5054553;28;20028;-36
2021/06/12 03:50:51;;;;;;;1.67;0.75;;;24.90;58.00;;;;;;5025964;28;20116;-35
2021/06/12 03:53:17;;;;;;;0.70;0.70;;;24.90;58.20;;;;;;5046370;28;20036;-35
2021/06/12 03:55:43;;;;;;;0.75;0.75;;;24.80;58.10;;;;;;5048560;28;20483;-35
2021/06/12 03:58:08;;;;;;;0.50;0.50;;;24.80;58.00;;;;;;5065354;28;20029;-36
2021/06/12 04:00:34;;;;;;;0.65;0.65;;;24.80;58.10;;;;;;5037289;28;20030;-36
2021/06/12 04:02:59;;;;;;;0.60;0.60;;;24.80;58.10;;;;;;5026983;28;20398;-34
2021/06/12 04:05:25;;;;;;;0.50;0.50;;;24.80;58.10;;;;;;5045287;28;20022;-35
2021/06/12 04:07:51;;;;;;;0.57;0.57;;;24.80;58.10;;;;;;5037307;28;20138;-37
2021/06/12 04:10:16;;;;;;;0.65;0.65;;;24.80;58.10;;;;;;5034213;28;20042;-36
2021/06/12 04:12:42;;;;;;;0.50;0.50;;;24.70;58.40;;;;;;5038106;28;20034;-40
2021/06/12 04:15:08;;;;;;;0.45;0.45;;;24.70;58.40;;;;;;5044459;28;20083;-37
2021/06/12 04:17:34;;;;;;;0.52;0.52;;;24.80;58.10;;;;;;5043317;28;20045;-35
2021/06/12 04:19:59;;;;;;;0.55;0.55;;;24.80;58.00;;;;;;5037235;28;20061;-36
2021/06/12 04:22:26;;;;;;;0.50;0.50;;;24.80;58.00;;;;;;5032790;28;20021;-35
2021/06/12 04:24:52;;;;;;;0.40;0.40;;;24.80;58.70;;;;;;5037968;28;20061;-35
2021/06/12 04:27:17;;;;;;;0.50;0.50;;;24.80;58.00;;;;;;5037429;28;20076;-36
2021/06/12 04:29:43;;;;;;;0.50;0.50;;;24.80;58.00;;;;;;5040849;28;20380;-35
2021/06/12 04:32:09;;;;;;;0.40;0.40;;;24.80;58.00;;;;;;5047150;28;20090;-35
2021/06/12 04:34:34;;;;;;;0.45;0.45;;;24.70;58.10;;;;;;5033913;28;20100;-35
2021/06/12 04:37:02;;;;;;;0.50;0.47;;;24.80;58.00;;;;;;5035473;28;20087;-35
2021/06/12 04:39:28;;;;;;;0.50;0.50;;;24.80;58.10;;;;;;5047987;28;20560;-35
2021/06/12 04:41:54;;;;;;;0.30;0.30;;;24.70;58.00;;;;;;5039922;28;20045;-36
2021/06/12 04:44:19;;;;;;;0.50;0.50;;;24.70;58.00;;;;;;5037310;28;20091;-35
2021/06/12 04:46:45;;;;;;;0.50;0.50;;;24.70;58.00;;;;;;5035269;28;20411;-35
2021/06/12 04:49:10;;;;;;;0.40;0.40;;;24.70;58.30;;;;;;5033944;28;20108;-35
2021/06/12 04:51:36;;;;;;;0.40;0.40;;;24.80;58.10;;;;;;5037259;28;20029;-36
2021/06/12 04:54:02;;;;;;;0.60;0.60;;;24.70;58.20;;;;;;5042678;28;20440;-35
2021/06/12 04:56:27;;;;;;;0.35;0.35;;;24.70;58.30;;;;;;5043512;28;20044;-35
2021/06/12 04:58:53;;;;;;;0.60;0.60;;;24.70;58.30;;;;;;5036155;28;20516;-36
2021/06/12 05:01:18;;;;;;;0.47;0.47;;;24.60;58.40;;;;;;5032370;28;20039;-37
2021/06/12 05:03:44;;;;;;;0.40;0.40;;;24.60;58.40;;;;;;5037516;28;20587;-40
2021/06/12 05:06:09;;;;;;;0.40;0.40;;;24.60;58.40;;;;;;5035979;28;20033;-41
2021/06/12 05:08:35;;;;;;;0.40;0.40;;;24.70;58.30;;;;;;5035833;28;20030;-40
2021/06/12 05:11:01;;;;;;;0.40;0.40;;;24.70;58.30;;;;;;5036772;28;20025;-39
2021/06/12 05:13:26;;;;;;;0.38;0.38;;;24.70;58.30;;;;;;5033528;28;20022;-40
2021/06/12 05:15:52;;;;;;;0.38;0.38;;;24.60;58.40;;;;;;5064274;28;20021;-40
2021/06/12 05:18:18;;;;;;;0.45;0.45;;;24.60;59.10;;;;;;5036072;28;20459;-40
2021/06/12 05:20:44;;;;;;;0.40;0.40;;;24.60;58.60;;;;;;5035714;28;20092;-40
2021/06/12 05:23:10;;;;;;;0.30;0.30;;;24.60;58.50;;;;;;5036020;28;20028;-40
2021/06/12 05:25:35;;;;;;;0.40;0.40;;;24.60;58.40;;;;;;5033727;28;20075;-40
2021/06/12 05:28:01;;;;;;;0.50;0.50;;;24.70;58.30;;;;;;5046557;28;20033;-40
2021/06/12 05:30:26;;;;;;;0.32;0.30;;;24.70;58.30;;;;;;5050596;28;20104;-40
2021/06/12 05:32:53;;;;;;;0.40;0.40;;;24.70;58.20;;;;;;5041026;28;20092;-36
2021/06/12 05:35:18;;;;;;;0.40;0.40;;;24.70;58.20;;;;;;5048114;28;20064;-36
2021/06/12 05:37:44;;;;;;;0.40;0.40;;;24.80;58.00;;;;;;5048000;28;20033;-35
2021/06/12 05:40:11;;;;;;;0.73;0.40;;;24.80;58.00;;;;;;5015102;28;20070;-36
2021/06/12 05:42:36;;;;;;;0.40;0.40;;;24.90;57.90;;;;;;5036689;28;20401;-35
2021/06/12 05:45:03;;;;;;;0.30;0.30;;;24.90;57.80;;;;;;5044763;28;20032;-35
2021/06/12 05:47:29;;;;;;;0.40;0.40;;;24.90;57.90;;;;;;5042518;28;20029;-36
2021/06/12 05:49:54;;;;;;;0.40;0.40;;;24.80;57.90;;;;;;5035952;28;20078;-36
2021/06/12 05:52:20;;;;;;;0.30;0.30;;;24.70;58.10;;;;;;5031776;28;20502;-35
2021/06/12 05:54:45;;;;;;;0.40;0.40;;;24.70;58.00;;;;;;5036439;28;20060;-35
2021/06/12 05:57:11;;;;;;;0.25;0.25;;;24.80;58.00;;;;;;5035491;28;20506;-36
2021/06/12 05:59:37;;;;;;;0.30;0.30;;;24.70;58.20;;;;;;5041137;28;20025;-35
2021/06/12 06:02:02;;;;;;;0.25;0.25;;;24.60;58.40;;;;;;5031123;28;20040;-34
2021/06/12 06:04:28;;;;;;;0.30;0.30;;;24.70;58.40;;;;;;5032753;28;20032;-35
2021/06/12 06:06:53;;;;;;;0.30;0.30;;;24.70;58.30;;;;;;5051920;28;20108;-37
2021/06/12 06:09:19;;;;;;;0.30;0.30;;;24.70;58.40;;;;;;5035211;28;20499;-36
2021/06/12 06:11:45;;;;;;;0.30;0.30;;;24.70;58.30;;;;;;5035091;28;20037;-36
2021/06/12 06:14:10;;;;;;;0.30;0.30;;;24.70;58.20;;;;;;5035352;28;20514;-36
2021/06/12 06:16:36;;;;;;;0.38;0.38;;;24.60;58.40;;;;;;5045450;28;20030;-36
2021/06/12 06:19:01;;;;;;;0.40;0.38;;;24.60;58.50;;;;;;5048833;28;20029;-35
2021/06/12 06:21:27;;;;;;;0.35;0.35;;;24.60;58.40;;;;;;5036638;28;20451;-36
2021/06/12 06:23:52;;;;;;;0.57;0.30;;;24.60;58.30;;;;;;5037897;28;20028;-36
2021/06/12 06:26:18;;;;;;;0.30;0.30;;;24.60;58.30;;;;;;5043678;28;20446;-37
2021/06/12 06:28:44;;;;;;;0.30;0.30;;;24.70;58.40;;;;;;5033233;28;20029;-37
2021/06/12 06:31:09;;;;;;;0.52;0.30;;;24.60;58.40;;;;;;5031018;28;20029;-38
2021/06/12 06:33:35;;;;;;;0.20;0.20;;;24.60;58.50;;;;;;5035785;28;20021;-38
2021/06/12 06:36:00;;;;;;;0.30;0.30;;;24.60;59.20;;;;;;5050890;28;20056;-37
2021/06/12 06:38:26;;;;;;;0.30;0.30;;;24.60;58.60;;;;;;5035484;28;20506;-36
2021/06/12 06:40:52;;;;;;;0.20;0.20;;;24.60;58.50;;;;;;5045825;28;20407;-37
2021/06/12 06:43:18;;;;;;;2.40;0.38;;;24.60;58.50;;;;;;5031874;28;20028;-38
2021/06/12 06:45:43;;;;;;;0.30;0.30;;;24.60;58.50;;;;;;5046565;28;20037;-36
2021/06/12 06:48:10;;;;;;;0.30;0.30;;;24.60;58.50;;;;;;5035839;28;20042;-37
2021/06/12 06:50:35;;;;;;;0.30;0.30;;;24.60;58.50;;;;;;5035309;28;20032;-37
2021/06/12 06:53:01;;;;;;;0.30;0.30;;;24.60;58.40;;;;;;5035216;28;20395;-37
2021/06/12 06:55:27;;;;;;;1.00;0.30;;;24.60;58.40;;;;;;5031121;28;20029;-37
2021/06/12 06:57:53;;;;;;;1.48;0.40;;;24.60;58.60;;;;;;5035358;28;20065;-37
2021/06/12 07:00:18;;;;;;;1.48;0.30;;;24.60;58.50;;;;;;5037272;28;20572;-38
2021/06/12 07:02:44;;;;;;;0.20;0.20;;;24.50;58.50;;;;;;5051478;28;20107;-37
2021/06/12 07:05:10;;;;;;;1.75;0.30;;;24.50;58.40;;;;;;5044149;28;20107;-36
2021/06/12 07:07:36;;;;;;;0.20;0.20;;;24.60;58.30;;;;;;5040714;28;20064;-37
2021/06/12 07:10:02;;;;;;;0.30;0.30;;;24.60;58.40;;;;;;5032828;28;20085;-37
2021/06/12 07:12:27;;;;;;;0.43;0.30;;;24.60;58.40;;;;;;5044956;28;20040;-36
2021/06/12 07:14:53;;;;;;;0.30;0.30;;;24.60;58.40;;;;;;5042538;28;20029;-37
2021/06/12 07:17:19;;;;;;;0.28;0.28;;;24.50;58.50;;;;;;5042360;28;20659;-37
2021/06/12 07:19:45;;;;;;;1.70;0.30;;;24.60;58.40;;;;;;5033520;28;20113;-37
2021/06/12 07:22:10;;;;;;;0.40;0.22;;;24.60;58.30;;;;;;5031775;28;20109;-37
2021/06/12 07:24:36;;;;;;;0.20;0.20;;;24.30;59.10;;;;;;5046456;28;20033;-37
2021/06/12 07:27:02;;;;;;;0.40;0.30;;;24.10;60.10;;;;;;5037351;28;20410;-36
2021/06/12 07:29:27;;;;;;;0.20;0.20;;;24.00;60.50;;;;;;5041959;28;20029;-38
2021/06/12 07:31:53;;;;;;;0.40;0.40;;;23.90;60.60;;;;;;5034488;28;20036;-40
2021/06/12 07:34:19;;;;;;;0.40;0.40;;;24.00;60.80;;;;;;5046596;28;20040;-40
2021/06/12 07:36:45;;;;;;;0.38;0.38;;;24.20;60.10;;;;;;5046443;28;20052;-40
2021/06/12 07:39:10;;;;;;;0.30;0.30;;;24.40;59.50;;;;;;5045305;28;20076;-39
2021/06/12 07:41:36;;;;;;;1.23;0.30;;;24.50;59.20;;;;;;5046330;28;20486;-40
2021/06/12 07:44:03;;;;;;;3.20;0.35;;;24.50;59.10;;;;;;5047610;28;20025;-42
2021/06/12 07:46:28;;;;;;;0.38;0.38;;;24.60;58.90;;;;;;5034222;28;20041;-42
2021/06/12 07:48:54;;;;;;;0.73;0.32;;;24.60;58.70;;;;;;5038295;28;20028;-42
2021/06/12 07:51:20;;;;;;;1.15;0.40;;;24.70;58.50;;;;;;5033803;28;20033;-41
2021/06/12 07:53:45;;;;;;;0.30;0.30;;;24.80;58.30;;;;;;5023087;28;20502;-36
2021/06/12 07:56:11;;;;;;;0.40;0.40;;;24.70;58.60;;;;;;5038188;28;20033;-37
2021/06/12 07:58:36;;;;;;;0.40;0.40;;;24.70;58.40;;;;;;5034488;28;20092;-36
2021/06/12 08:01:02;;;;;;;0.60;0.60;;;24.70;58.10;;;;;;5051684;28;20090;-35
2021/06/12 08:03:28;;;;;;;0.52;0.52;;;24.80;57.80;;;;;;5048473;28;20032;-38
2021/06/12 08:05:54;;;;;;;0.30;0.30;;;24.70;57.50;;;;;;5042355;28;20033;-38
2021/06/12 08:08:20;;;;;;;1.88;0.63;;;24.70;57.40;;;;;;5033761;28;20497;-35
2021/06/12 08:10:45;;;;;;;0.38;0.38;;;24.70;57.20;;;;;;5064695;28;20070;-36
2021/06/12 08:13:11;;;;;;;0.47;0.47;;;24.80;57.00;;;;;;5059090;28;20104;-36
2021/06/12 08:15:38;;;;;;;0.60;0.60;;;24.80;56.90;;;;;;5049305;28;20155;-36
2021/06/12 08:18:03;;;;;;;0.50;0.50;;;24.70;57.60;;;;;;5039143;28;20099;-36
2021/06/12 08:20:29;;;;;;;0.55;0.50;;;24.70;56.80;;;;;;5038811;28;20554;-37
2021/06/12 08:22:54;;;;;;;0.50;0.50;;;24.70;57.10;;;;;;5049825;28;20025;-36
2021/06/12 08:25:20;;;;;;;0.50;0.50;;;24.60;57.20;;;;;;5032029;28;20121;-58
2021/06/12 08:27:46;;;;;;;0.50;0.50;;;24.70;57.20;;;;;;5050070;28;20111;-36
2021/06/12 08:30:12;;;;;;;0.63;0.63;;;24.60;57.50;;;;;;5049045;28;20048;-36
2021/06/12 08:32:38;;;;;;;0.50;0.50;;;24.40;57.70;;;;;;5026631;28;20167;-36
2021/06/12 08:35:05;;;;;;;0.40;0.40;;;24.50;57.70;;;;;;5045315;28;20126;-36
2021/06/12 08:37:30;;;;;;;0.60;0.60;;;24.40;57.80;;;;;;5061326;28;20021;-36
2021/06/12 08:39:56;;;;;;;0.50;0.50;;;24.50;57.80;;;;;;5051423;28;20043;-36
2021/06/12 08:42:22;;;;;;;1.38;0.70;;;24.40;58.00;;;;;;5043443;28;20044;-36
2021/06/12 08:44:48;;;;;;;1.20;0.70;;;24.40;58.10;;;;;;5040290;28;20423;-36
2021/06/12 08:47:13;;;;;;;0.70;0.70;;;24.40;58.20;;;;;;5036269;28;20036;-38
2021/06/12 08:49:39;;;;;;;2.83;0.70;;;24.40;58.90;;;;;;5046783;28;20025;-42
2021/06/12 08:52:05;;;;;;;0.55;0.55;;;24.50;58.90;;;;;;5044402;28;20032;-42
2021/06/12 08:54:30;;;;;;;0.70;0.70;;;24.50;58.70;;;;;;5057900;28;20052;-41
2021/06/12 08:56:56;;;;;;;0.68;0.68;;;24.40;59.10;;;;;;5045606;28;20021;-42
2021/06/12 08:59:22;;;;;;;0.60;0.60;;;24.50;58.90;;;;;;5051563;28;20021;-42
2021/06/12 09:01:47;;;;;;;2.03;0.80;;;24.60;59.20;;;;;;5046641;28;20033;-40
2021/06/12 09:04:37;;;;;;;1.98;0.80;;;24.60;59.20;;;;;;5055808;28;20086;-40
2021/06/12 09:07:29;;;;;;;0.77;0.70;;;24.60;59.00;;;;;;5037205;28;20112;-38
2021/06/12 09:09:57;;;;;;;0.65;0.65;;;24.60;58.80;;;;;;5057621;28;20055;-40
2021/06/12 09:12:43;;;;;;;0.70;0.70;;;24.50;59.00;;;;;;5048710;28;20021;-42
2021/06/12 09:15:27;;;;;;;0.85;0.75;;;24.50;58.80;;;;;;5034996;28;20427;-42
2021/06/12 09:17:52;;;;;;;0.80;0.80;;;24.30;59.10;;;;;;5051938;28;20090;-40
2021/06/12 09:20:39;;;;;;;1.70;0.65;;;24.20;59.50;;;;;;5051009;28;20660;-41
2021/06/12 09:23:13;;;;;;;0.70;0.70;;;24.30;59.30;;;;;;5058918;28;20029;-43
2021/06/12 09:25:44;;;;;;;0.82;0.82;;;24.30;59.00;;;;;;5048106;28;20033;-41
2021/06/12 09:28:09;;;;;;;0.90;0.90;;;24.50;58.70;;;;;;5033457;28;20463;-41
2021/06/12 09:30:35;;;;;;;1.00;1.00;;;24.60;58.40;;;;;;5048046;28;20538;-40
2021/06/12 09:33:01;;;;;;;0.80;0.80;;;24.60;58.40;;;;;;5046981;28;20061;-41
2021/06/12 09:35:36;;;;;;;0.85;0.73;;;24.70;58.30;;;;;;5047200;28;20035;-41
2021/06/12 09:38:01;;;;;;;1.20;1.10;;;24.70;58.00;;;;;;5046017;28;20028;-41
2021/06/12 09:40:31;;;;;;;1.20;0.73;;;24.70;58.10;;;;;;5050050;28;20044;-42
2021/06/12 09:42:58;;;;;;;0.90;0.90;;;24.80;58.00;;;;;;5048893;28;20112;-42
2021/06/12 09:45:27;;;;;;;1.00;1.00;;;24.70;58.00;;;;;;5053584;28;20044;-43
2021/06/12 09:48:13;;;;;;;1.00;1.00;;;24.60;58.30;;;;;;5054156;28;20123;-44
2021/06/12 09:50:39;;;;;;;1.00;1.00;;;24.30;58.70;;;;;;5031892;28;20040;-41
2021/06/12 09:53:13;;;;;;;1.30;1.10;;;24.30;58.70;;;;;;5050014;28;20025;-41
2021/06/12 09:55:38;;;;;;;1.02;1.02;;;24.30;59.10;;;;;;5051587;28;20044;-40
2021/06/12 09:58:04;;;;;;;2.40;0.98;;;24.50;58.60;;;;;;5046062;28;20419;-40
2021/06/12 10:00:40;;;;;;;0.90;0.90;;;24.30;58.90;;;;;;5055322;28;20037;-39
2021/06/12 10:03:19;;;;;;;1.63;1.20;;;24.50;58.70;;;;;;5048095;28;20033;-40
2021/06/12 10:05:45;;;;;;;1.05;1.05;;;24.40;58.90;;;;;;5049063;28;20033;-40
2021/06/12 10:08:13;;;;;;;1.73;1.30;;;24.20;59.40;;;;;;5049504;28;20025;-40
2021/06/12 10:10:38;;;;;;;18.48;2.33;;;24.20;60.00;;;;;;5048790;28;20037;-41
2021/06/12 10:13:05;;;;;;;1.55;1.45;;;24.20;59.40;;;;;;5015289;28;20055;-40
2021/06/12 10:15:31;;;;;;;1.20;1.20;;;24.30;59.10;;;;;;5052084;28;20040;-41
2021/06/12 10:17:56;;;;;;;1.33;1.33;;;24.50;58.70;;;;;;5033095;28;20025;-42
2021/06/12 10:20:23;;;;;;;1.75;1.65;;;24.50;58.60;;;;;;5037166;28;20053;-41
2021/06/12 10:22:51;;;;;;;3.05;1.52;;;24.50;58.70;;;;;;5051980;28;20024;-42
2021/06/12 10:25:17;;;;;;;1.70;1.60;;;24.50;58.70;;;;;;5032918;28;20025;-42
2021/06/12 10:27:43;;;;;;;1.30;1.30;;;24.40;58.80;;;;;;5054188;28;20032;-42
2021/06/12 10:30:10;;;;;;;1.70;1.60;;;24.30;59.10;;;;;;5049296;28;20100;-42
2021/06/12 10:32:35;;;;;;;1.60;1.50;;;24.40;58.90;;;;;;5049371;28;20115;-44
2021/06/12 10:35:03;;;;;;;1.50;1.40;;;24.40;58.90;;;;;;5050725;28;20100;-45
2021/06/12 10:37:29;;;;;;;1.55;1.45;;;24.40;58.90;;;;;;5037250;28;20044;-42
2021/06/12 10:40:04;;;;;;;1.50;1.50;;;24.60;58.70;;;;;;5051644;28;20021;-42
2021/06/12 10:42:30;;;;;;;2.00;1.90;;;24.40;59.00;;;;;;5051492;28;20455;-39
2021/06/12 10:44:56;;;;;;;1.52;1.42;;;24.60;58.60;;;;;;5052790;28;20033;-41
2021/06/12 10:47:43;;;;;;;1.88;1.77;;;24.60;59.00;;;;;;5057904;28;20402;-40
2021/06/12 10:50:24;;;;;;;1.83;1.73;;;24.30;59.20;;;;;;5053863;28;20486;-46
2021/06/12 10:52:50;;;;;;;1.50;1.40;;;24.40;59.00;;;;;;5050273;28;20025;-44
2021/06/12 10:55:42;;;;;;;2.13;1.65;;;24.40;59.10;;;;;;5056335;28;20697;-42
2021/06/12 10:58:35;;;;;;;1.75;1.65;;;24.60;58.90;;;;;;5043709;28;20025;-41
2021/06/12 11:01:07;;;;;;;1.40;1.40;;;24.20;59.80;;;;;;5052972;28;20048;-35
2021/06/12 11:09:34;;;;;;;1.70;1.60;;;24.20;60.10;;;;;;4698604;28;10000376;-43
2021/06/12 11:12:03;;;;;;;1.75;1.50;;;24.00;60.90;;;;;;5048702;28;20112;-42
2021/06/12 11:14:33;;;;;;;1.88;1.77;;;24.10;60.60;;;;;;5051795;28;20037;-42
2021/06/12 11:17:08;;;;;;;2.03;1.40;;;24.30;60.30;;;;;;5050374;28;20036;-42
2021/06/12 11:19:44;;;;;;;1.60;1.52;;;24.50;59.90;;;;;;5045706;28;20395;-40
2021/06/12 11:22:30;;;;;;;2.65;1.50;;;24.40;60.20;;;;;;5050097;28;20040;-42
2021/06/12 11:25:08;;;;;;;1.70;1.60;;;24.10;61.30;;;;;;5050963;28;20040;-41
2021/06/12 11:27:38;;;;;;;1.50;1.40;;;24.20;60.90;;;;;;5052162;28;20569;-41
2021/06/12 11:30:23;;;;;;;1.70;1.60;;;24.10;61.00;;;;;;5046343;28;20104;-42
2021/06/12 11:32:49;;;;;;;1.50;1.45;;;24.10;60.50;;;;;;5049128;28;20032;-43
2021/06/12 11:35:51;;;;;;;1.65;1.55;;;24.10;60.50;;;;;;5051058;28;20090;-42
2021/06/12 11:38:19;;;;;;;1.52;1.42;;;24.30;60.00;;;;;;4985618;28;20132;-42
2021/06/12 11:41:03;;;;;;;2.25;2.00;;;24.20;60.20;;;;;;4987702;28;20054;-42
2021/06/12 11:43:32;;;;;;;2.38;2.17;;;24.10;60.60;;;;;;4989124;28;20032;-42
2021/06/12 11:45:57;;;;;;;2.10;2.00;;;23.90;62.00;;;;;;4990904;28;20524;-42
2021/06/12 11:48:24;;;;;;;2.13;2.03;;;24.20;60.60;;;;;;4979424;28;20124;-37
2021/06/12 11:50:50;;;;;;;2.53;2.42;;;24.40;59.80;;;;;;4969141;28;20061;-38
2021/06/12 11:53:16;;;;;;;3.20;3.00;;;24.20;60.40;;;;;;4989806;28;20030;-38
2021/06/12 11:55:42;;;;;;;2.95;2.83;;;24.40;60.40;;;;;;4971720;28;20061;-36
2021/06/12 11:58:08;;;;;;;3.65;3.47;;;24.30;60.30;;;;;;4994795;28;20609;-39
2021/06/12 12:00:35;;;;;;;2.55;2.35;;;24.50;60.90;;;;;;5001263;28;20104;-38
2021/06/12 12:03:11;;;;;;;1.83;1.73;;;24.90;58.90;;;;;;4996001;28;20113;-36
2021/06/12 12:05:38;;;;;;;2.08;1.90;;;25.20;57.50;;;;;;4994268;28;20077;-38
2021/06/12 12:08:12;;;;;;;1.30;1.30;;;25.30;57.00;;;;;;4991827;28;20046;-38
2021/06/12 12:10:39;;;;;;;1.50;1.40;;;25.40;56.70;;;;;;4993768;28;20173;-38
2021/06/12 12:13:05;;;;;;;1.67;1.58;;;25.50;56.40;;;;;;5003275;28;20419;-37
2021/06/12 12:15:34;;;;;;;1.48;1.38;;;25.60;56.40;;;;;;5053718;28;20052;-39
2021/06/12 12:18:03;;;;;;;1.42;1.38;;;25.50;56.70;;;;;;5047733;28;20043;-37
2021/06/12 12:20:34;;;;;;;1.30;1.20;;;25.40;56.80;;;;;;5045009;28;20041;-37
2021/06/12 12:22:59;;;;;;;1.40;1.30;;;25.60;56.60;;;;;;5032978;28;20056;-37
2021/06/12 12:25:27;;;;;;;1.70;1.60;;;25.60;56.30;;;;;;5049582;28;20498;-37
2021/06/12 12:28:04;;;;;;;1.70;1.60;;;25.70;56.30;;;;;;5033347;28;20025;-38
2021/06/12 12:30:29;;;;;;;1.52;1.42;;;25.70;56.10;;;;;;5053057;28;20064;-38
2021/06/12 12:33:11;;;;;;;1.98;1.40;;;25.70;56.00;;;;;;5045942;28;20063;-39
2021/06/12 12:35:37;;;;;;;1.27;1.17;;;25.80;56.10;;;;;;5045926;28;20111;-39
2021/06/12 12:38:15;;;;;;;1.38;1.27;;;25.80;56.00;;;;;;5030403;28;20112;-37
2021/06/12 12:40:41;;;;;;;2.97;1.40;;;25.90;56.20;;;;;;5047395;28;20680;-37
2021/06/12 12:43:07;;;;;;;1.85;1.52;;;25.90;56.10;;;;;;5048622;28;20029;-36
2021/06/12 12:45:33;;;;;;;2.03;1.92;;;25.90;56.10;;;;;;5048494;28;20048;-41
2021/06/12 12:47:59;;;;;;;1.52;1.42;;;25.90;56.10;;;;;;5030382;28;20033;-41
2021/06/12 12:50:25;;;;;;;1.50;1.40;;;25.90;56.10;;;;;;5034307;28;20037;-41
2021/06/12 12:53:07;;;;;;;2.05;1.60;;;25.90;56.10;;;;;;5035000;28;20044;-41
2021/06/12 12:55:33;;;;;;;2.30;1.40;;;26.00;56.30;;;;;;5059699;28;20036;-41